Time;durP1;ratioP1;P1;durP2;ratioP2;P2;SDS_P1;SDS_P2;PMS_P1;PMS_P2;Temp;Humidity;BMP_temperature;BMP_pressure;BME280_temperature;BME280_humidity;BME280_pressure;Samples;Min_cycle;Max_cycle;Signal;HPM_P1;HPM_P2
2022/11/01 00:01:44;;;;;;;9.30;5.60;;;;;;;;;;5014779;28;20188;-72
2022/11/01 00:04:11;;;;;;;8.70;5.13;;;;;;;;;;5028590;28;20667;-71
2022/11/01 00:06:38;;;;;;;6.70;4.80;;;;;;;;;;5026362;28;20551;-71
2022/11/01 00:09:05;;;;;;;7.77;4.73;;;;;;;;;;5012311;28;20185;-71
2022/11/01 00:11:32;;;;;;;7.50;5.00;;;;;;;;;;5010845;28;20606;-71
2022/11/01 00:13:58;;;;;;;6.00;5.10;;;;;;;;;;5012241;28;20735;-71
2022/11/01 00:16:25;;;;;;;7.40;5.43;;;;;;;;;;5011948;28;21092;-71
2022/11/01 00:18:52;;;;;;;6.93;5.27;;;;;;;;;;5017007;28;21008;-72
2022/11/01 00:21:18;;;;;;;6.53;5.17;;;;;;;;;;5011848;28;20198;-72
2022/11/01 00:23:45;;;;;;;6.83;5.27;;;;;;;;;;5010186;28;20192;-71
2022/11/01 00:26:13;;;;;;;5.20;4.37;;;;;;;;;;5020805;28;20211;-71
2022/11/01 00:28:40;;;;;;;5.93;4.13;;;;;;;;;;5025073;28;20196;-72
2022/11/01 00:31:06;;;;;;;5.73;4.40;;;;;;;;;;5011460;28;20280;-71
2022/11/01 00:33:40;;;;;;;8.87;5.00;;;;;;;;;;5011470;28;20193;-71
2022/11/01 00:36:07;;;;;;;7.67;4.90;;;;;;;;;;5016988;28;20266;-71
2022/11/01 00:38:34;;;;;;;5.43;4.23;;;;;;;;;;5015399;28;20262;-71
2022/11/01 00:41:02;;;;;;;5.27;4.03;;;;;;;;;;5010662;28;20263;-71
2022/11/01 00:43:30;;;;;;;5.80;4.03;;;;;;;;;;5009385;28;20659;-72
2022/11/01 00:45:56;;;;;;;4.50;3.77;;;;;;;;;;5015276;28;20295;-71
2022/11/01 00:48:23;;;;;;;5.17;3.87;;;;;;;;;;5006026;28;20195;-72
2022/11/01 00:50:50;;;;;;;5.03;3.50;;;;;;;;;;5010542;28;20226;-72
2022/11/01 00:53:16;;;;;;;4.47;3.77;;;;;;;;;;5009405;28;20200;-71
2022/11/01 00:55:43;;;;;;;4.73;3.70;;;;;;;;;;5018372;28;20196;-72
2022/11/01 00:58:09;;;;;;;6.67;4.00;;;;;;;;;;5024760;28;20219;-72
2022/11/01 01:00:36;;;;;;;7.27;4.10;;;;;;;;;;5021832;28;20192;-71
2022/11/01 01:03:03;;;;;;;6.17;3.80;;;;;;;;;;5010374;28;20196;-71
2022/11/01 01:05:30;;;;;;;6.07;3.70;;;;;;;;;;5009741;28;20254;-72
2022/11/01 01:07:57;;;;;;;4.50;3.60;;;;;;;;;;5011141;28;20271;-72
2022/11/01 01:10:23;;;;;;;6.07;3.73;;;;;;;;;;5011444;28;20603;-72
2022/11/01 01:12:50;;;;;;;4.67;3.77;;;;;;;;;;5015330;28;20192;-72
2022/11/01 01:15:17;;;;;;;4.47;3.60;;;;;;;;;;5023254;28;20747;-72
2022/11/01 01:17:43;;;;;;;4.33;3.40;;;;;;;;;;5026653;28;20261;-72
2022/11/01 01:20:10;;;;;;;4.70;3.50;;;;;;;;;;4992984;28;20308;-72
2022/11/01 01:22:37;;;;;;;6.93;3.63;;;;;;;;;;4992722;28;20211;-72
2022/11/01 01:25:03;;;;;;;5.57;4.40;;;;;;;;;;5011114;28;20192;-72
2022/11/01 01:27:30;;;;;;;6.17;3.53;;;;;;;;;;5012589;28;20200;-72
2022/11/01 01:29:57;;;;;;;4.60;3.77;;;;;;;;;;5025718;28;20560;-72
2022/11/01 01:32:23;;;;;;;5.20;4.07;;;;;;;;;;5015445;28;20237;-72
2022/11/01 01:34:50;;;;;;;6.40;3.80;;;;;;;;;;5024122;28;20640;-72
2022/11/01 01:37:17;;;;;;;4.73;3.63;;;;;;;;;;5008406;28;20555;-71
2022/11/01 01:39:43;;;;;;;6.73;4.50;;;;;;;;;;5026673;28;20314;-72
2022/11/01 01:42:14;;;;;;;5.33;4.03;;;;;;;;;;5015889;28;20204;-72
2022/11/01 01:44:49;;;;;;;7.47;5.10;;;;;;;;;;5026076;28;20205;-71
2022/11/01 01:47:34;;;;;;;7.80;5.57;;;;;;;;;;5028824;28;20211;-71
2022/11/01 01:50:04;;;;;;;7.10;4.87;;;;;;;;;;5026712;28;20227;-72
2022/11/01 01:52:57;;;;;;;6.03;4.30;;;;;;;;;;5016146;28;20305;-72
2022/11/01 01:55:26;;;;;;;7.00;4.30;;;;;;;;;;5027863;28;20199;-72
2022/11/01 01:57:53;;;;;;;6.40;4.23;;;;;;;;;;5024223;28;20196;-72
2022/11/01 02:00:19;;;;;;;5.43;3.63;;;;;;;;;;5022739;28;20219;-72
2022/11/01 02:02:46;;;;;;;6.23;4.10;;;;;;;;;;5020996;28;20267;-72
2022/11/01 02:05:25;;;;;;;5.70;4.43;;;;;;;;;;4999806;28;20555;-71
2022/11/01 02:07:51;;;;;;;5.77;4.23;;;;;;;;;;5024263;28;20401;-71
2022/11/01 02:10:18;;;;;;;5.77;4.47;;;;;;;;;;5023132;28;20278;-72
2022/11/01 02:12:48;;;;;;;5.63;4.10;;;;;;;;;;5009699;28;20238;-72
2022/11/01 02:15:15;;;;;;;5.20;3.90;;;;;;;;;;5009908;28;20527;-71
2022/11/01 02:17:45;;;;;;;5.20;3.60;;;;;;;;;;5020412;28;20954;-72
2022/11/01 02:20:18;;;;;;;5.87;4.53;;;;;;;;;;5019794;28;20583;-71
2022/11/01 02:22:53;;;;;;;5.77;4.13;;;;;;;;;;5018786;28;20283;-72
2022/11/01 02:25:34;;;;;;;6.43;4.33;;;;;;;;;;5027091;28;20229;-71
2022/11/01 02:28:21;;;;;;;4.53;3.83;;;;;;;;;;5016181;28;20199;-72
2022/11/01 02:31:02;;;;;;;5.90;4.40;;;;;;;;;;5027992;28;20654;-72
2022/11/01 02:33:31;;;;;;;6.57;4.27;;;;;;;;;;5022484;28;20731;-71
2022/11/01 02:36:02;;;;;;;6.57;4.20;;;;;;;;;;5012358;28;20274;-72
2022/11/01 02:38:38;;;;;;;6.57;4.37;;;;;;;;;;5017563;28;20203;-71
2022/11/01 02:41:19;;;;;;;5.83;4.30;;;;;;;;;;5026183;28;20900;-72
2022/11/01 02:43:58;;;;;;;5.10;3.80;;;;;;;;;;5024200;28;20616;-72
2022/11/01 02:49:31;;;;;;;5.17;3.57;;;;;;;;;;4997980;28;20254;-71
2022/11/01 02:51:58;;;;;;;5.77;3.50;;;;;;;;;;5010215;28;20220;-71
2022/11/01 02:54:30;;;;;;;6.33;3.70;;;;;;;;;;5021998;28;20210;-71
2022/11/01 02:57:02;;;;;;;5.30;4.10;;;;;;;;;;5016432;28;20211;-72
2022/11/01 02:59:28;;;;;;;6.33;3.77;;;;;;;;;;5027281;28;20587;-72
2022/11/01 03:02:00;;;;;;;7.20;5.03;;;;;;;;;;5011648;28;20271;-72
2022/11/01 03:04:26;;;;;;;6.47;4.73;;;;;;;;;;5028469;28;20273;-71
2022/11/01 03:06:57;;;;;;;6.93;4.83;;;;;;;;;;5027331;28;20230;-72
2022/11/01 03:09:23;;;;;;;6.33;5.10;;;;;;;;;;5018456;28;20628;-72
2022/11/01 03:11:50;;;;;;;7.33;4.67;;;;;;;;;;5017616;28;20216;-72
2022/11/01 03:14:22;;;;;;;6.03;4.43;;;;;;;;;;5013396;28;20292;-72
2022/11/01 03:16:49;;;;;;;6.10;5.07;;;;;;;;;;5011729;28;20228;-72
2022/11/01 03:19:34;;;;;;;7.67;4.73;;;;;;;;;;5032400;28;20215;-71
2022/11/01 03:22:18;;;;;;;7.83;5.13;;;;;;;;;;5031246;28;20206;-71
2022/11/01 03:24:49;;;;;;;10.10;5.50;;;;;;;;;;5026846;28;20210;-71
2022/11/01 03:27:24;;;;;;;8.67;5.23;;;;;;;;;;5023212;28;20206;-72
2022/11/01 03:29:55;;;;;;;7.30;5.20;;;;;;;;;;5012665;28;20664;-72
2022/11/01 03:32:23;;;;;;;7.57;5.10;;;;;;;;;;5030133;28;20199;-72
2022/11/01 03:34:51;;;;;;;6.47;4.67;;;;;;;;;;5023088;28;20279;-72
2022/11/01 03:37:18;;;;;;;6.80;4.20;;;;;;;;;;5010566;28;20204;-72
2022/11/01 03:39:48;;;;;;;6.57;4.50;;;;;;;;;;5010519;28;20270;-72
2022/11/01 03:42:16;;;;;;;8.70;4.30;;;;;;;;;;5020821;28;20192;-72
2022/11/01 03:44:44;;;;;;;9.07;5.17;;;;;;;;;;5027382;28;20278;-72
2022/11/01 03:47:11;;;;;;;6.00;4.50;;;;;;;;;;5026738;28;20192;-72
2022/11/01 03:49:37;;;;;;;6.57;4.37;;;;;;;;;;5029125;28;20215;-72
2022/11/01 03:52:05;;;;;;;6.73;4.30;;;;;;;;;;5031958;28;20646;-72
2022/11/01 03:54:31;;;;;;;7.70;4.70;;;;;;;;;;5027743;28;20183;-72
2022/11/01 03:56:58;;;;;;;6.83;4.67;;;;;;;;;;5030988;28;20195;-72
2022/11/01 03:59:25;;;;;;;6.97;4.40;;;;;;;;;;5015588;28;20310;-72
2022/11/01 04:01:52;;;;;;;8.33;5.27;;;;;;;;;;5011697;28;20199;-72
2022/11/01 04:04:19;;;;;;;7.43;4.40;;;;;;;;;;5011002;28;20548;-72
2022/11/01 04:06:46;;;;;;;6.33;4.50;;;;;;;;;;5009947;28;20279;-72
2022/11/01 04:09:12;;;;;;;6.23;4.07;;;;;;;;;;5010394;28;20196;-72
2022/11/01 04:11:39;;;;;;;5.07;4.07;;;;;;;;;;5009676;28;20192;-72
2022/11/01 04:22:22;;;;;;;5.17;3.60;;;;;;;;;;5025510;28;20274;-72
2022/11/01 04:24:50;;;;;;;5.70;3.50;;;;;;;;;;5023634;28;20809;-72
2022/11/01 04:27:16;;;;;;;4.30;3.13;;;;;;;;;;5025395;28;20594;-72
2022/11/01 04:29:43;;;;;;;4.53;3.13;;;;;;;;;;5015528;28;20191;-72
2022/11/01 04:32:09;;;;;;;4.77;2.93;;;;;;;;;;5025045;28;20253;-72
2022/11/01 04:34:42;;;;;;;4.70;2.97;;;;;;;;;;5025419;28;20302;-71
2022/11/01 04:37:09;;;;;;;3.97;3.20;;;;;;;;;;5022565;28;20195;-71
2022/11/01 04:39:35;;;;;;;3.67;2.87;;;;;;;;;;5029476;28;20233;-71
2022/11/01 04:42:02;;;;;;;4.17;3.07;;;;;;;;;;5025443;28;20277;-71
2022/11/01 04:44:28;;;;;;;3.87;3.00;;;;;;;;;;5012617;28;20188;-72
2022/11/01 04:46:55;;;;;;;5.87;3.40;;;;;;;;;;5009593;28;20188;-71
2022/11/01 04:49:22;;;;;;;5.23;4.00;;;;;;;;;;5017959;28;20644;-71
2022/11/01 04:51:48;;;;;;;5.03;3.57;;;;;;;;;;5029369;28;20725;-72
2022/11/01 04:54:15;;;;;;;5.33;3.97;;;;;;;;;;5028386;28;20210;-71
2022/11/01 04:56:42;;;;;;;6.97;4.40;;;;;;;;;;5017927;28;20209;-71
2022/11/01 04:59:08;;;;;;;6.80;4.63;;;;;;;;;;5024431;28;20218;-71
2022/11/01 05:01:35;;;;;;;6.30;4.37;;;;;;;;;;5029536;28;20868;-72
2022/11/01 05:04:02;;;;;;;7.17;4.83;;;;;;;;;;5022911;28;20199;-72
2022/11/01 05:06:28;;;;;;;7.13;4.10;;;;;;;;;;5022056;28;20202;-72
2022/11/01 05:08:55;;;;;;;7.03;4.77;;;;;;;;;;5010677;28;20239;-71
2022/11/01 05:11:24;;;;;;;6.17;4.37;;;;;;;;;;5008903;28;20713;-72
2022/11/01 05:13:51;;;;;;;6.53;4.47;;;;;;;;;;5028394;28;20191;-70
2022/11/01 05:16:17;;;;;;;8.43;5.43;;;;;;;;;;5031028;28;20605;-72
2022/11/01 05:18:46;;;;;;;7.40;4.43;;;;;;;;;;5028780;28;20286;-72
2022/11/01 05:21:13;;;;;;;7.27;5.03;;;;;;;;;;5034936;28;20282;-72
2022/11/01 05:23:39;;;;;;;7.87;5.33;;;;;;;;;;5035504;28;20183;-73
2022/11/01 05:26:06;;;;;;;12.10;7.67;;;;;;;;;;5028288;28;20194;-72
2022/11/01 05:28:33;;;;;;;10.63;6.30;;;;;;;;;;5021853;28;20271;-73
2022/11/01 05:31:00;;;;;;;9.10;5.80;;;;;;;;;;5026654;28;20345;-74
2022/11/01 05:33:26;;;;;;;7.80;4.93;;;;;;;;;;5033491;28;20187;-72
2022/11/01 05:35:53;;;;;;;7.07;5.47;;;;;;;;;;5028033;28;20202;-72
2022/11/01 05:38:20;;;;;;;6.87;5.17;;;;;;;;;;5026297;28;20220;-71
2022/11/01 05:40:47;;;;;;;7.73;5.83;;;;;;;;;;5025418;28;20308;-72
2022/11/01 05:43:14;;;;;;;8.23;5.37;;;;;;;;;;5022052;28;20717;-72
2022/11/01 05:45:40;;;;;;;8.20;5.70;;;;;;;;;;5033623;28;20222;-71
2022/11/01 05:48:07;;;;;;;9.10;5.40;;;;;;;;;;5027733;28;20306;-72
2022/11/01 05:50:33;;;;;;;8.47;5.67;;;;;;;;;;5032560;28;20234;-72
2022/11/01 05:53:06;;;;;;;8.17;5.67;;;;;;;;;;5029322;28;20205;-72
2022/11/01 05:55:34;;;;;;;8.00;5.97;;;;;;;;;;5024648;28;20204;-73
2022/11/01 05:58:01;;;;;;;8.33;6.07;;;;;;;;;;5030556;28;20209;-72
2022/11/01 06:00:28;;;;;;;7.93;5.97;;;;;;;;;;5028723;28;20221;-71
2022/11/01 06:02:58;;;;;;;10.43;5.73;;;;;;;;;;5024808;28;20543;-72
2022/11/01 06:05:26;;;;;;;11.13;6.83;;;;;;;;;;5022191;28;20773;-72
2022/11/01 06:07:53;;;;;;;12.47;6.20;;;;;;;;;;5025888;28;20195;-72
2022/11/01 06:10:20;;;;;;;11.20;6.40;;;;;;;;;;5008529;28;20284;-72
2022/11/01 06:12:47;;;;;;;9.53;6.60;;;;;;;;;;5023021;28;20742;-71
2022/11/01 06:15:14;;;;;;;10.00;6.10;;;;;;;;;;5024814;28;20196;-72
2022/11/01 06:17:40;;;;;;;16.10;7.80;;;;;;;;;;5014610;28;20312;-70
2022/11/01 06:20:07;;;;;;;10.87;7.20;;;;;;;;;;5029417;28;20213;-71
2022/11/01 06:22:35;;;;;;;13.27;8.83;;;;;;;;;;5034632;28;20264;-71
2022/11/01 06:25:02;;;;;;;14.90;8.20;;;;;;;;;;5019472;28;20223;-69
2022/11/01 06:27:32;;;;;;;14.73;8.07;;;;;;;;;;5031791;28;20218;-67
2022/11/01 06:29:59;;;;;;;12.73;7.67;;;;;;;;;;5035836;28;20360;-68
2022/11/01 06:32:27;;;;;;;15.40;8.87;;;;;;;;;;5032941;28;20202;-69
2022/11/01 06:34:54;;;;;;;15.57;8.73;;;;;;;;;;5027142;28;20191;-67
2022/11/01 06:37:21;;;;;;;15.80;8.07;;;;;;;;;;5029563;28;20225;-68
2022/11/01 06:39:48;;;;;;;20.40;10.10;;;;;;;;;;5036164;28;20207;-68
2022/11/01 06:42:14;;;;;;;15.63;9.40;;;;;;;;;;5034733;28;20227;-67
2022/11/01 06:44:41;;;;;;;18.83;11.03;;;;;;;;;;5032071;28;20183;-67
2022/11/01 06:47:08;;;;;;;20.43;11.43;;;;;;;;;;5028517;28;20257;-69
2022/11/01 06:49:35;;;;;;;20.97;12.03;;;;;;;;;;5015054;28;20280;-68
2022/11/01 06:52:02;;;;;;;22.63;13.20;;;;;;;;;;5030803;28;20202;-69
2022/11/01 06:54:29;;;;;;;25.27;12.47;;;;;;;;;;5020949;28;20193;-69
2022/11/01 06:56:57;;;;;;;20.83;12.00;;;;;;;;;;5032395;28;20225;-68
2022/11/01 06:59:23;;;;;;;20.00;11.93;;;;;;;;;;5030628;28;20194;-68
2022/11/01 07:01:51;;;;;;;20.83;12.20;;;;;;;;;;5028230;28;20667;-69
2022/11/01 07:04:20;;;;;;;18.13;11.67;;;;;;;;;;5031404;28;20259;-70
2022/11/01 07:06:47;;;;;;;18.47;11.10;;;;;;;;;;5024202;28;20196;-70
2022/11/01 07:09:13;;;;;;;18.40;11.37;;;;;;;;;;5022421;28;20297;-69
2022/11/01 07:11:40;;;;;;;18.87;11.53;;;;;;;;;;5027107;28;20486;-69
2022/11/01 07:14:08;;;;;;;18.97;11.37;;;;;;;;;;5027895;28;20187;-71
2022/11/01 07:16:34;;;;;;;18.27;10.70;;;;;;;;;;5023155;28;20270;-70
2022/11/01 07:19:01;;;;;;;19.07;11.40;;;;;;;;;;5030283;28;20204;-69
2022/11/01 07:21:27;;;;;;;19.00;11.40;;;;;;;;;;5026703;28;20700;-71
2022/11/01 07:23:54;;;;;;;18.70;11.70;;;;;;;;;;5024781;28;20224;-69
2022/11/01 07:26:21;;;;;;;19.63;12.17;;;;;;;;;;5027403;28;20773;-72
2022/11/01 07:28:48;;;;;;;24.33;13.67;;;;;;;;;;5024094;28;20203;-70
2022/11/01 07:31:14;;;;;;;22.67;12.93;;;;;;;;;;5024292;28;20192;-71
2022/11/01 07:33:41;;;;;;;19.00;11.23;;;;;;;;;;5026774;28;20951;-71
2022/11/01 07:36:08;;;;;;;19.53;12.03;;;;;;;;;;5032042;28;20211;-72
2022/11/01 07:38:34;;;;;;;21.00;12.63;;;;;;;;;;5029040;28;20192;-72
2022/11/01 07:41:03;;;;;;;24.20;12.80;;;;;;;;;;5031915;28;20235;-73
2022/11/01 07:43:30;;;;;;;19.73;12.23;;;;;;;;;;5025860;28;20199;-70
2022/11/01 07:45:57;;;;;;;23.70;12.63;;;;;;;;;;5025555;28;20203;-71
2022/11/01 07:48:24;;;;;;;21.33;12.63;;;;;;;;;;5025576;28;20940;-72
2022/11/01 07:50:53;;;;;;;21.07;12.77;;;;;;;;;;5031095;28;20241;-72
2022/11/01 07:53:20;;;;;;;20.73;12.53;;;;;;;;;;5030501;28;20202;-68
2022/11/01 07:55:47;;;;;;;24.00;13.93;;;;;;;;;;5035692;28;20260;-72
2022/11/01 07:58:14;;;;;;;21.83;13.63;;;;;;;;;;5024679;28;20214;-71
2022/11/01 08:00:40;;;;;;;21.47;13.87;;;;;;;;;;5015021;28;20710;-69
2022/11/01 08:03:08;;;;;;;24.70;13.57;;;;;;;;;;5026683;28;20183;-68
2022/11/01 08:05:34;;;;;;;25.80;14.23;;;;;;;;;;5037016;28;20260;-70
2022/11/01 08:08:01;;;;;;;25.93;14.27;;;;;;;;;;5035288;28;20267;-70
2022/11/01 08:10:28;;;;;;;29.10;14.07;;;;;;;;;;5030753;28;20182;-70
2022/11/01 08:12:59;;;;;;;26.87;14.93;;;;;;;;;;5037130;28;20914;-70
2022/11/01 08:15:26;;;;;;;29.80;14.87;;;;;;;;;;5034381;28;20220;-71
2022/11/01 08:17:53;;;;;;;27.67;14.50;;;;;;;;;;5025261;28;20247;-71
2022/11/01 08:20:20;;;;;;;29.70;14.07;;;;;;;;;;5025021;28;20317;-70
2022/11/01 08:22:47;;;;;;;26.13;14.27;;;;;;;;;;5022056;28;20218;-71
2022/11/01 08:25:14;;;;;;;33.20;13.53;;;;;;;;;;5029615;28;20227;-70
2022/11/01 08:27:40;;;;;;;29.30;14.43;;;;;;;;;;5034217;28;20203;-71
2022/11/01 08:30:07;;;;;;;25.93;13.50;;;;;;;;;;5026902;28;20198;-70
2022/11/01 08:32:35;;;;;;;27.70;14.17;;;;;;;;;;5024762;28;20203;-71
2022/11/01 08:35:02;;;;;;;26.03;14.60;;;;;;;;;;5038919;28;20208;-70
2022/11/01 08:37:30;;;;;;;29.10;15.30;;;;;;;;;;5025741;28;20245;-71
2022/11/01 08:39:56;;;;;;;25.90;14.73;;;;;;;;;;5027329;28;20188;-72
2022/11/01 08:42:23;;;;;;;26.87;14.87;;;;;;;;;;5025167;28;20605;-70
2022/11/01 08:44:50;;;;;;;25.60;14.00;;;;;;;;;;5035608;28;20285;-69
2022/11/01 08:47:17;;;;;;;25.37;14.33;;;;;;;;;;5032323;28;20283;-68
2022/11/01 08:49:44;;;;;;;25.90;14.43;;;;;;;;;;5032473;28;20230;-71
2022/11/01 08:52:11;;;;;;;30.97;16.23;;;;;;;;;;5028299;28;20199;-71
2022/11/01 08:54:38;;;;;;;32.63;15.97;;;;;;;;;;5036067;28;20556;-71
2022/11/01 08:57:07;;;;;;;32.83;15.60;;;;;;;;;;5023322;28;20298;-70
2022/11/01 08:59:33;;;;;;;34.30;17.27;;;;;;;;;;5016759;28;20667;-71
2022/11/01 09:02:00;;;;;;;40.13;18.70;;;;;;;;;;5031231;28;20243;-72
2022/11/01 09:04:28;;;;;;;37.90;18.03;;;;;;;;;;5022031;28;20191;-69
2022/11/01 09:06:55;;;;;;;34.83;17.37;;;;;;;;;;5040190;28;20207;-69
2022/11/01 09:09:22;;;;;;;38.60;17.53;;;;;;;;;;5020638;28;20236;-71
2022/11/01 09:11:48;;;;;;;34.53;18.13;;;;;;;;;;5022182;28;20187;-71
2022/11/01 09:14:16;;;;;;;39.57;17.97;;;;;;;;;;5021611;28;20254;-70
2022/11/01 09:16:42;;;;;;;38.63;18.83;;;;;;;;;;5029474;28;20194;-70
2022/11/01 09:19:09;;;;;;;41.77;18.23;;;;;;;;;;5021760;28;20191;-71
2022/11/01 09:21:36;;;;;;;46.90;20.37;;;;;;;;;;5022510;28;20223;-69
2022/11/01 09:24:03;;;;;;;54.37;21.33;;;;;;;;;;5027052;28;20283;-70
2022/11/01 09:26:29;;;;;;;54.63;21.37;;;;;;;;;;5027656;28;20588;-69
2022/11/01 09:28:57;;;;;;;50.10;20.83;;;;;;;;;;5019478;28;20283;-69
2022/11/01 09:31:24;;;;;;;51.67;21.73;;;;;;;;;;5012476;28;20973;-69
2022/11/01 09:33:52;;;;;;;51.03;20.93;;;;;;;;;;5030582;28;20594;-69
2022/11/01 09:36:20;;;;;;;57.63;23.07;;;;;;;;;;5018391;28;20187;-70
2022/11/01 09:38:46;;;;;;;62.20;23.60;;;;;;;;;;5024254;28;20196;-69
2022/11/01 09:41:13;;;;;;;70.47;25.10;;;;;;;;;;5028632;28;20207;-70
2022/11/01 09:43:40;;;;;;;73.27;25.60;;;;;;;;;;5015890;28;20184;-70
2022/11/01 09:46:06;;;;;;;69.63;26.80;;;;;;;;;;5025610;28;20590;-70
2022/11/01 09:48:33;;;;;;;71.70;26.83;;;;;;;;;;5030988;28;20639;-70
2022/11/01 09:51:00;;;;;;;67.57;26.23;;;;;;;;;;5024881;28;20235;-70
2022/11/01 09:53:27;;;;;;;65.63;25.73;;;;;;;;;;5027703;28;20249;-70
2022/11/01 09:55:58;;;;;;;68.10;25.23;;;;;;;;;;5020397;28;20192;-70
2022/11/01 09:58:43;;;;;;;68.43;25.73;;;;;;;;;;5025517;28;20198;-70
2022/11/01 10:01:14;;;;;;;68.90;26.27;;;;;;;;;;5017168;28;20224;-70
2022/11/01 10:03:41;;;;;;;69.70;25.20;;;;;;;;;;5018567;28;20184;-70
2022/11/01 10:06:08;;;;;;;68.43;26.10;;;;;;;;;;5027866;28;20202;-70
2022/11/01 10:08:44;;;;;;;63.77;24.33;;;;;;;;;;5022923;28;20634;-71
2022/11/01 10:11:13;;;;;;;64.27;24.90;;;;;;;;;;5011020;28;20567;-71
2022/11/01 10:13:40;;;;;;;67.53;26.27;;;;;;;;;;5011142;28;20779;-71
2022/11/01 10:16:15;;;;;;;75.50;27.03;;;;;;;;;;5012223;28;20219;-71
2022/11/01 10:18:48;;;;;;;68.97;26.00;;;;;;;;;;5011699;28;20192;-71
2022/11/01 10:21:16;;;;;;;63.63;24.77;;;;;;;;;;5010582;28;20223;-71
2022/11/01 10:23:49;;;;;;;53.13;23.07;;;;;;;;;;5010504;28;20196;-71
2022/11/01 10:26:21;;;;;;;50.13;22.57;;;;;;;;;;5015545;28;20207;-71
2022/11/01 10:28:47;;;;;;;55.97;23.70;;;;;;;;;;4994410;28;20282;-71
2022/11/01 10:31:15;;;;;;;58.33;24.13;;;;;;;;;;5014927;28;20599;-71
2022/11/01 10:33:50;;;;;;;54.30;24.90;;;;;;;;;;5013092;28;20200;-71
2022/11/01 10:36:22;;;;;;;53.30;22.90;;;;;;;;;;5027086;28;20843;-71
2022/11/01 10:38:56;;;;;;;52.53;23.33;;;;;;;;;;5025958;28;20192;-71
2022/11/01 10:41:46;;;;;;;57.30;24.10;;;;;;;;;;5019097;28;20618;-71
2022/11/01 10:44:15;;;;;;;51.27;23.70;;;;;;;;;;5028351;28;20545;-71
2022/11/01 10:46:44;;;;;;;58.07;24.57;;;;;;;;;;5018143;28;20183;-71
2022/11/01 10:49:20;;;;;;;52.47;23.57;;;;;;;;;;5024136;28;20251;-71
2022/11/01 10:51:50;;;;;;;40.27;21.53;;;;;;;;;;5029752;28;20183;-71
2022/11/01 10:54:19;;;;;;;41.80;21.57;;;;;;;;;;5042207;28;20187;-72
2022/11/01 10:56:46;;;;;;;50.23;24.47;;;;;;;;;;5017524;28;20187;-71
2022/11/01 10:59:17;;;;;;;45.13;23.67;;;;;;;;;;5009941;28;20651;-71
2022/11/01 11:01:44;;;;;;;45.93;23.60;;;;;;;;;;5020611;28;20219;-71
2022/11/01 11:04:12;;;;;;;48.80;24.93;;;;;;;;;;5022768;28;20202;-71
2022/11/01 11:06:39;;;;;;;54.30;27.53;;;;;;;;;;5019823;28;20179;-71
2022/11/01 11:09:06;;;;;;;52.47;26.30;;;;;;;;;;5032750;28;20226;-72
2022/11/01 11:11:36;;;;;;;59.50;29.43;;;;;;;;;;5032506;28;20593;-72
2022/11/01 11:14:04;;;;;;;57.87;28.77;;;;;;;;;;5012267;28;20594;-72
2022/11/01 11:16:41;;;;;;;56.40;28.20;;;;;;;;;;5018197;28;20199;-70
2022/11/01 11:19:18;;;;;;;57.30;28.10;;;;;;;;;;5026389;28;20342;-72
2022/11/01 11:21:46;;;;;;;59.07;28.27;;;;;;;;;;5022427;28;20213;-72
2022/11/01 11:24:24;;;;;;;49.40;25.17;;;;;;;;;;5013626;28;20194;-72
2022/11/01 11:26:53;;;;;;;53.60;26.83;;;;;;;;;;5026302;28;20215;-71
2022/11/01 11:29:26;;;;;;;55.67;26.87;;;;;;;;;;5022410;28;20206;-71
2022/11/01 11:31:54;;;;;;;59.43;28.67;;;;;;;;;;5031382;28;20188;-72
2022/11/01 11:34:23;;;;;;;61.10;27.50;;;;;;;;;;5018618;28;20205;-72
2022/11/01 11:36:52;;;;;;;52.77;27.67;;;;;;;;;;5015301;28;20206;-73
2022/11/01 11:39:22;;;;;;;55.47;28.17;;;;;;;;;;5023526;28;20192;-71
2022/11/01 11:41:48;;;;;;;53.97;26.83;;;;;;;;;;5015605;28;20231;-71
2022/11/01 11:44:36;;;;;;;52.03;25.87;;;;;;;;;;5024204;28;20729;-71
2022/11/01 11:47:03;;;;;;;49.33;24.60;;;;;;;;;;5025078;28;20192;-71
2022/11/01 11:49:31;;;;;;;47.73;24.23;;;;;;;;;;5014279;28;20789;-70
2022/11/01 11:51:57;;;;;;;48.17;25.30;;;;;;;;;;5015798;28;20683;-71
2022/11/01 11:54:30;;;;;;;48.10;23.70;;;;;;;;;;4997425;28;20239;-71
2022/11/01 11:57:07;;;;;;;48.60;24.30;;;;;;;;;;5022810;28;20673;-71
2022/11/01 11:59:34;;;;;;;51.77;25.87;;;;;;;;;;5015573;28;20198;-71
2022/11/01 12:02:01;;;;;;;52.37;25.03;;;;;;;;;;5020281;28;20239;-72
2022/11/01 12:04:37;;;;;;;50.53;24.30;;;;;;;;;;5018600;28;20192;-71
2022/11/01 12:07:06;;;;;;;52.57;25.27;;;;;;;;;;5022995;28;20191;-71
2022/11/01 12:09:43;;;;;;;53.47;25.60;;;;;;;;;;5015287;28;20180;-71
2022/11/01 12:12:22;;;;;;;50.10;24.93;;;;;;;;;;5013558;28;20198;-71
2022/11/01 12:14:50;;;;;;;55.90;25.20;;;;;;;;;;5018926;28;20199;-71
2022/11/01 12:17:24;;;;;;;54.20;24.63;;;;;;;;;;5019162;28;20204;-71
2022/11/01 12:20:09;;;;;;;51.30;23.30;;;;;;;;;;5013773;28;20219;-71
2022/11/01 12:22:37;;;;;;;58.57;26.27;;;;;;;;;;5022093;28;20216;-71
2022/11/01 12:25:05;;;;;;;53.47;25.47;;;;;;;;;;5017413;28;20695;-72
2022/11/01 12:27:33;;;;;;;58.70;26.13;;;;;;;;;;5020209;28;20199;-71
2022/11/01 12:30:03;;;;;;;51.93;24.60;;;;;;;;;;5010444;28;20652;-71
2022/11/01 12:32:32;;;;;;;53.00;25.37;;;;;;;;;;5001371;28;20234;-69
2022/11/01 12:35:03;;;;;;;51.90;24.50;;;;;;;;;;5018079;28;20212;-72
2022/11/01 12:37:42;;;;;;;53.60;25.07;;;;;;;;;;5031956;28;20194;-71
2022/11/01 12:40:16;;;;;;;54.53;23.80;;;;;;;;;;5001110;28;20551;-69
2022/11/01 12:42:50;;;;;;;50.13;23.97;;;;;;;;;;5027702;28;20615;-69
2022/11/01 12:45:35;;;;;;;47.43;23.13;;;;;;;;;;5019386;28;20659;-71
2022/11/01 12:48:04;;;;;;;46.17;23.40;;;;;;;;;;5021472;28;20207;-71
2022/11/01 12:51:01;;;;;;;44.00;24.07;;;;;;;;;;5026183;28;20231;-71
2022/11/01 12:53:33;;;;;;;44.33;21.57;;;;;;;;;;5008549;28;20207;-72
2022/11/01 12:56:00;;;;;;;45.40;22.43;;;;;;;;;;5015477;28;20197;-72
2022/11/01 12:58:27;;;;;;;43.90;22.23;;;;;;;;;;5022242;28;20239;-72
2022/11/01 13:01:00;;;;;;;46.20;23.03;;;;;;;;;;5022944;28;20200;-72
2022/11/01 13:03:41;;;;;;;40.67;21.80;;;;;;;;;;5028557;28;20183;-73
2022/11/01 13:06:20;;;;;;;37.73;19.63;;;;;;;;;;5019424;28;20314;-73
2022/11/01 13:09:20;;;;;;;35.90;19.30;;;;;;;;;;5023266;28;20192;-72
2022/11/01 13:11:49;;;;;;;34.30;19.23;;;;;;;;;;5007645;28;20191;-73
2022/11/01 13:14:19;;;;;;;34.63;20.37;;;;;;;;;;5031323;28;20199;-73
2022/11/01 13:16:47;;;;;;;36.87;18.80;;;;;;;;;;5014342;28;20201;-72
2022/11/01 13:19:17;;;;;;;39.83;20.77;;;;;;;;;;5008234;28;20278;-72
2022/11/01 13:21:45;;;;;;;39.03;19.43;;;;;;;;;;5025276;28;20322;-72
2022/11/01 13:24:11;;;;;;;36.03;19.40;;;;;;;;;;5017413;28;20274;-72
2022/11/01 13:26:43;;;;;;;36.00;18.77;;;;;;;;;;5026835;28;20222;-72
2022/11/01 13:29:25;;;;;;;34.47;18.97;;;;;;;;;;5021064;28;20192;-72
2022/11/01 13:32:05;;;;;;;37.67;19.90;;;;;;;;;;5021188;28;20199;-72
2022/11/01 13:35:04;;;;;;;38.73;19.40;;;;;;;;;;5025693;28;20222;-72
2022/11/01 13:37:36;;;;;;;36.50;19.13;;;;;;;;;;5003351;28;20282;-72
2022/11/01 13:40:12;;;;;;;33.00;18.93;;;;;;;;;;5034762;28;20881;-69
2022/11/01 13:42:40;;;;;;;35.07;20.17;;;;;;;;;;5026660;28;20234;-70
2022/11/01 13:45:25;;;;;;;38.87;19.90;;;;;;;;;;5028114;28;20227;-69
2022/11/01 13:48:06;;;;;;;40.03;20.53;;;;;;;;;;5019811;28;20246;-70
2022/11/01 13:50:39;;;;;;;41.60;20.10;;;;;;;;;;5007612;28;20406;-70
2022/11/01 13:53:09;;;;;;;39.33;22.03;;;;;;;;;;5014602;28;20226;-72
2022/11/01 13:55:37;;;;;;;37.20;21.33;;;;;;;;;;5027684;28;20690;-69
2022/11/01 13:58:04;;;;;;;39.70;22.00;;;;;;;;;;5033930;28;20197;-69
2022/11/01 14:00:31;;;;;;;41.17;21.37;;;;;;;;;;5012636;28;20206;-68
2022/11/01 14:03:00;;;;;;;39.27;21.90;;;;;;;;;;5019752;28;20204;-69
2022/11/01 14:05:34;;;;;;;37.63;22.30;;;;;;;;;;5021201;28;20612;-69
2022/11/01 14:08:20;;;;;;;32.70;20.73;;;;;;;;;;5022685;28;20639;-69
2022/11/01 14:10:47;;;;;;;29.93;18.80;;;;;;;;;;5013535;28;20188;-68
2022/11/01 14:13:14;;;;;;;32.60;19.20;;;;;;;;;;5019116;28;20211;-69
2022/11/01 14:16:07;;;;;;;33.60;19.03;;;;;;;;;;5017654;28;20269;-69
2022/11/01 14:19:13;;;;;;;30.53;18.77;;;;;;;;;;4999036;28;20263;-69
2022/11/01 14:21:46;;;;;;;33.07;20.27;;;;;;;;;;5000750;28;20302;-69
2022/11/01 14:24:18;;;;;;;37.20;20.47;;;;;;;;;;5025879;28;20192;-69
2022/11/01 14:26:46;;;;;;;38.50;22.47;;;;;;;;;;5026222;28;20180;-68
2022/11/01 14:29:12;;;;;;;39.27;23.30;;;;;;;;;;5021637;28;20184;-69
2022/11/01 14:31:39;;;;;;;37.27;22.27;;;;;;;;;;5000712;28;20196;-69
2022/11/01 14:34:07;;;;;;;37.70;22.17;;;;;;;;;;5023391;28;20223;-69
2022/11/01 14:36:36;;;;;;;32.33;21.37;;;;;;;;;;5020857;28;20199;-69
2022/11/01 14:39:14;;;;;;;33.07;20.30;;;;;;;;;;5022964;28;20607;-70
2022/11/01 14:41:41;;;;;;;37.67;21.00;;;;;;;;;;5027071;28;20559;-68
2022/11/01 14:44:13;;;;;;;34.43;20.43;;;;;;;;;;5022950;28;20693;-69
2022/11/01 14:46:41;;;;;;;38.63;22.80;;;;;;;;;;5015928;28;20191;-68
2022/11/01 14:49:15;;;;;;;40.13;22.50;;;;;;;;;;5018313;28;20220;-68
2022/11/01 14:51:47;;;;;;;44.07;22.40;;;;;;;;;;5021528;28;20227;-69
2022/11/01 14:54:29;;;;;;;43.37;23.77;;;;;;;;;;4992611;28;20718;-69